Terminal Aerodrome Forecast
Issued by NWS

Home | Current Version | Previous Version | Text Only | Print | Product List | Glossary On
Versions: 1 2 3 4 5 6 7 8 9 10 11 12 13 14 15 16
000
FTPA31 PHFO 250000 AAA
TAFMKK
TAF AMD
PHMK 250019Z 2500/2524 04015G22KT P6SM FEW025 SCT040
     FM250500 03005KT P6SM FEW025
     FM252000 04011G18KT P6SM FEW025 SCT040=

USA.gov is the U.S. government's official web portal to all federal, state and local government web resources and services.